sensor_id;sensor_type;location;lat;lon;timestamp;pressure;altitude;pressure_sealevel;temperature;humidity
53270;BME280;39159;45.634;9.420;2022-11-02T00:01:01;99663.97;;;10.62;100.00
53270;BME280;39159;45.634;9.420;2022-11-02T00:03:27;99664.50;;;10.64;100.00
53270;BME280;39159;45.634;9.420;2022-11-02T00:05:52;99654.09;;;10.66;100.00
53270;BME280;39159;45.634;9.420;2022-11-02T00:08:18;99656.38;;;10.59;100.00
53270;BME280;39159;45.634;9.420;2022-11-02T00:10:43;99655.09;;;10.51;100.00
53270;BME280;39159;45.634;9.420;2022-11-02T00:13:09;99654.06;;;10.47;100.00
53270;BME280;39159;45.634;9.420;2022-11-02T00:15:35;99660.88;;;10.45;100.00
53270;BME280;39159;45.634;9.420;2022-11-02T00:18:04;99656.78;;;10.47;100.00
53270;BME280;39159;45.634;9.420;2022-11-02T00:20:30;99660.53;;;10.51;100.00
53270;BME280;39159;45.634;9.420;2022-11-02T00:22:58;99654.81;;;10.53;100.00
53270;BME280;39159;45.634;9.420;2022-11-02T00:25:26;99658.59;;;10.57;100.00
53270;BME280;39159;45.634;9.420;2022-11-02T00:27:52;99658.94;;;10.50;100.00
53270;BME280;39159;45.634;9.420;2022-11-02T00:30:18;99648.19;;;10.35;100.00
53270;BME280;39159;45.634;9.420;2022-11-02T00:32:43;99657.94;;;10.41;100.00
53270;BME280;39159;45.634;9.420;2022-11-02T00:35:09;99655.50;;;10.40;100.00
53270;BME280;39159;45.634;9.420;2022-11-02T00:37:34;99654.16;;;10.37;100.00
53270;BME280;39159;45.634;9.420;2022-11-02T00:40:00;99651.22;;;10.28;100.00
53270;BME280;39159;45.634;9.420;2022-11-02T00:42:26;99649.84;;;10.31;100.00
53270;BME280;39159;45.634;9.420;2022-11-02T00:44:51;99643.00;;;10.33;100.00
53270;BME280;39159;45.634;9.420;2022-11-02T00:47:17;99652.50;;;10.41;100.00
53270;BME280;39159;45.634;9.420;2022-11-02T00:49:42;99660.09;;;10.44;100.00
53270;BME280;39159;45.634;9.420;2022-11-02T00:52:08;99648.00;;;10.50;100.00
53270;BME280;39159;45.634;9.420;2022-11-02T00:54:33;99643.59;;;10.54;100.00
53270;BME280;39159;45.634;9.420;2022-11-02T00:56:59;99643.28;;;10.56;100.00
53270;BME280;39159;45.634;9.420;2022-11-02T00:59:24;99645.75;;;10.57;100.00
53270;BME280;39159;45.634;9.420;2022-11-02T01:01:50;99643.00;;;10.57;100.00
53270;BME280;39159;45.634;9.420;2022-11-02T01:04:16;99643.00;;;10.57;100.00
53270;BME280;39159;45.634;9.420;2022-11-02T01:06:44;99656.66;;;10.57;100.00
53270;BME280;39159;45.634;9.420;2022-11-02T01:09:11;99644.94;;;10.57;100.00
53270;BME280;39159;45.634;9.420;2022-11-02T01:11:39;99643.00;;;10.57;100.00
53270;BME280;39159;45.634;9.420;2022-11-02T01:14:04;99641.09;;;10.58;100.00
53270;BME280;39159;45.634;9.420;2022-11-02T01:16:30;99634.53;;;10.59;100.00
53270;BME280;39159;45.634;9.420;2022-11-02T01:18:56;99643.00;;;10.57;100.00
53270;BME280;39159;45.634;9.420;2022-11-02T01:21:22;99638.94;;;10.55;100.00
53270;BME280;39159;45.634;9.420;2022-11-02T01:23:48;99638.34;;;10.58;100.00
53270;BME280;39159;45.634;9.420;2022-11-02T01:26:13;99630.47;;;10.56;100.00
53270;BME280;39159;45.634;9.420;2022-11-02T01:28:39;99639.75;;;10.55;100.00
53270;BME280;39159;45.634;9.420;2022-11-02T01:31:06;99643.59;;;10.54;100.00
53270;BME280;39159;45.634;9.420;2022-11-02T01:33:31;99641.97;;;10.53;100.00
53270;BME280;39159;45.634;9.420;2022-11-02T01:35:57;99633.56;;;10.50;100.00
53270;BME280;39159;45.634;9.420;2022-11-02T01:38:23;99634.66;;;10.49;100.00
53270;BME280;39159;45.634;9.420;2022-11-02T01:40:48;99633.59;;;10.45;100.00
53270;BME280;39159;45.634;9.420;2022-11-02T01:45:43;99628.66;;;10.47;100.00
53270;BME280;39159;45.634;9.420;2022-11-02T01:48:09;99638.50;;;10.48;100.00
53270;BME280;39159;45.634;9.420;2022-11-02T01:50:34;99630.59;;;10.46;100.00
53270;BME280;39159;45.634;9.420;2022-11-02T01:53:00;99631.13;;;10.48;100.00
53270;BME280;39159;45.634;9.420;2022-11-02T01:55:29;99631.41;;;10.47;100.00
53270;BME280;39159;45.634;9.420;2022-11-02T01:58:03;99625.59;;;10.53;100.00
53270;BME280;39159;45.634;9.420;2022-11-02T02:00:30;99631.13;;;10.48;100.00
53270;BME280;39159;45.634;9.420;2022-11-02T02:03:07;99635.00;;;10.42;100.00
53270;BME280;39159;45.634;9.420;2022-11-02T02:05:37;99627.69;;;10.37;100.00
53270;BME280;39159;45.634;9.420;2022-11-02T02:08:04;99631.31;;;10.28;100.00
53270;BME280;39159;45.634;9.420;2022-11-02T02:10:33;99631.13;;;10.19;100.00
53270;BME280;39159;45.634;9.420;2022-11-02T02:12:58;99635.59;;;10.10;100.00
53270;BME280;39159;45.634;9.420;2022-11-02T02:15:30;99631.81;;;10.06;100.00
53270;BME280;39159;45.634;9.420;2022-11-02T02:18:12;99628.88;;;9.97;100.00
53270;BME280;39159;45.634;9.420;2022-11-02T02:29:10;99623.63;;;9.77;100.00
53270;BME280;39159;45.634;9.420;2022-11-02T02:31:42;99619.25;;;9.75;100.00
53270;BME280;39159;45.634;9.420;2022-11-02T02:34:19;99626.44;;;9.66;100.00
53270;BME280;39159;45.634;9.420;2022-11-02T02:36:51;99633.31;;;9.59;100.00
53270;BME280;39159;45.634;9.420;2022-11-02T02:42:08;99627.34;;;9.51;100.00
53270;BME280;39159;45.634;9.420;2022-11-02T02:44:40;99628.19;;;9.52;100.00
53270;BME280;39159;45.634;9.420;2022-11-02T02:47:16;99618.69;;;9.44;100.00
53270;BME280;39159;45.634;9.420;2022-11-02T02:49:54;99618.47;;;9.41;100.00
53270;BME280;39159;45.634;9.420;2022-11-02T02:52:22;99617.94;;;9.33;100.00
53270;BME280;39159;45.634;9.420;2022-11-02T02:54:51;99613.34;;;9.29;100.00
53270;BME280;39159;45.634;9.420;2022-11-02T02:57:21;99610.94;;;9.27;100.00
53270;BME280;39159;45.634;9.420;2022-11-02T02:59:48;99606.28;;;9.28;100.00
53270;BME280;39159;45.634;9.420;2022-11-02T03:02:27;99606.78;;;9.35;100.00
53270;BME280;39159;45.634;9.420;2022-11-02T03:04:54;99605.41;;;9.38;100.00
53270;BME280;39159;45.634;9.420;2022-11-02T03:07:23;99606.78;;;9.35;100.00
53270;BME280;39159;45.634;9.420;2022-11-02T03:12:41;99601.94;;;9.27;100.00
53270;BME280;39159;45.634;9.420;2022-11-02T03:20:55;99614.00;;;9.16;100.00
53270;BME280;39159;45.634;9.420;2022-11-02T03:23:34;99604.47;;;9.13;100.00
53270;BME280;39159;45.634;9.420;2022-11-02T03:26:29;99603.94;;;9.11;100.00
53270;BME280;39159;45.634;9.420;2022-11-02T03:29:07;99605.91;;;9.05;100.00
53270;BME280;39159;45.634;9.420;2022-11-02T03:31:57;99596.38;;;9.03;100.00
53270;BME280;39159;45.634;9.420;2022-11-02T03:34:37;99598.03;;;8.99;100.00
53270;BME280;39159;45.634;9.420;2022-11-02T03:37:23;99597.25;;;8.98;100.00
53270;BME280;39159;45.634;9.420;2022-11-02T03:40:27;99596.16;;;8.94;100.00
53270;BME280;39159;45.634;9.420;2022-11-02T03:42:55;99591.53;;;8.95;100.00
53270;BME280;39159;45.634;9.420;2022-11-02T03:45:24;99586.63;;;8.97;100.00
53270;BME280;39159;45.634;9.420;2022-11-02T03:47:55;99589.88;;;8.99;100.00
53270;BME280;39159;45.634;9.420;2022-11-02T03:50:23;99599.66;;;9.05;100.00
53270;BME280;39159;45.634;9.420;2022-11-02T03:53:11;99608.31;;;9.12;100.00
53270;BME280;39159;45.634;9.420;2022-11-02T03:55:41;99612.09;;;9.16;100.00
53270;BME280;39159;45.634;9.420;2022-11-02T03:58:10;99618.09;;;9.13;100.00
53270;BME280;39159;45.634;9.420;2022-11-02T04:00:37;99612.13;;;9.11;100.00
53270;BME280;39159;45.634;9.420;2022-11-02T04:03:08;99606.66;;;9.11;100.00
53270;BME280;39159;45.634;9.420;2022-11-02T04:05:36;99606.66;;;9.11;100.00
53270;BME280;39159;45.634;9.420;2022-11-02T04:08:02;99617.25;;;9.18;100.00
53270;BME280;39159;45.634;9.420;2022-11-02T04:10:47;99616.41;;;9.22;100.00
53270;BME280;39159;45.634;9.420;2022-11-02T04:13:31;99618.56;;;9.25;100.00
53270;BME280;39159;45.634;9.420;2022-11-02T04:16:15;99618.81;;;9.29;100.00
53270;BME280;39159;45.634;9.420;2022-11-02T04:18:41;99619.63;;;9.29;100.00
53270;BME280;39159;45.634;9.420;2022-11-02T04:21:27;99621.84;;;9.27;100.00
53270;BME280;39159;45.634;9.420;2022-11-02T04:23:52;99622.88;;;9.31;100.00
53270;BME280;39159;45.634;9.420;2022-11-02T04:26:36;99628.84;;;9.33;100.00
53270;BME280;39159;45.634;9.420;2022-11-02T04:29:02;99619.63;;;9.29;100.00
53270;BME280;39159;45.634;9.420;2022-11-02T04:31:28;99630.00;;;9.27;100.00
53270;BME280;39159;45.634;9.420;2022-11-02T04:33:53;99628.34;;;9.26;100.00
53270;BME280;39159;45.634;9.420;2022-11-02T04:36:18;99638.19;;;9.22;100.00
53270;BME280;39159;45.634;9.420;2022-11-02T04:38:44;99633.84;;;9.21;100.00
53270;BME280;39159;45.634;9.420;2022-11-02T04:41:14;99624.34;;;9.19;100.00
53270;BME280;39159;45.634;9.420;2022-11-02T04:43:59;99627.59;;;9.16;100.00
53270;BME280;39159;45.634;9.420;2022-11-02T04:46:26;99628.97;;;9.18;100.00
53270;BME280;39159;45.634;9.420;2022-11-02T04:48:52;99631.97;;;9.17;100.00
53270;BME280;39159;45.634;9.420;2022-11-02T04:51:19;99631.41;;;9.20;100.00
53270;BME280;39159;45.634;9.420;2022-11-02T04:53:48;99628.44;;;9.16;100.00
53270;BME280;39159;45.634;9.420;2022-11-02T04:56:14;99628.50;;;9.06;100.00
53270;BME280;39159;45.634;9.420;2022-11-02T04:58:40;99628.81;;;8.99;100.00
53270;BME280;39159;45.634;9.420;2022-11-02T05:01:12;99630.53;;;8.85;100.00
53270;BME280;39159;45.634;9.420;2022-11-02T05:03:38;99630.22;;;8.86;100.00
53270;BME280;39159;45.634;9.420;2022-11-02T05:06:04;99637.59;;;8.81;100.00
53270;BME280;39159;45.634;9.420;2022-11-02T05:08:30;99639.78;;;8.79;100.00
53270;BME280;39159;45.634;9.420;2022-11-02T05:10:58;99647.69;;;8.75;100.00
53270;BME280;39159;45.634;9.420;2022-11-02T05:13:25;99644.66;;;8.82;100.00
53270;BME280;39159;45.634;9.420;2022-11-02T05:15:53;99646.59;;;8.81;100.00
53270;BME280;39159;45.634;9.420;2022-11-02T05:18:19;99649.31;;;8.81;100.00
53270;BME280;39159;45.634;9.420;2022-11-02T05:20:50;99655.59;;;8.77;100.00
53270;BME280;39159;45.634;9.420;2022-11-02T05:23:16;99653.44;;;8.68;100.00
53270;BME280;39159;45.634;9.420;2022-11-02T05:25:41;99655.63;;;8.66;100.00
53270;BME280;39159;45.634;9.420;2022-11-02T05:28:07;99657.81;;;8.69;100.00
53270;BME280;39159;45.634;9.420;2022-11-02T05:30:32;99642.56;;;8.63;100.00
53270;BME280;39159;45.634;9.420;2022-11-02T05:32:58;99646.13;;;8.59;100.00
53270;BME280;39159;45.634;9.420;2022-11-02T05:35:23;99646.94;;;8.59;100.00
53270;BME280;39159;45.634;9.420;2022-11-02T05:37:49;99637.66;;;8.60;100.00
53270;BME280;39159;45.634;9.420;2022-11-02T05:40:15;99637.97;;;8.59;100.00
53270;BME280;39159;45.634;9.420;2022-11-02T05:42:40;99642.34;;;8.55;100.00
53270;BME280;39159;45.634;9.420;2022-11-02T05:45:06;99637.75;;;8.45;100.00
53270;BME280;39159;45.634;9.420;2022-11-02T05:47:32;99653.50;;;8.38;100.00
53270;BME280;39159;45.634;9.420;2022-11-02T05:49:58;99645.88;;;8.40;100.00
53270;BME280;39159;45.634;9.420;2022-11-02T05:52:23;99646.72;;;8.40;100.00
53270;BME280;39159;45.634;9.420;2022-11-02T05:54:49;99653.22;;;8.39;100.00
53270;BME280;39159;45.634;9.420;2022-11-02T05:57:14;99656.78;;;8.35;100.00
53270;BME280;39159;45.634;9.420;2022-11-02T05:59:41;99656.50;;;8.46;100.00
53270;BME280;39159;45.634;9.420;2022-11-02T06:02:06;99658.91;;;8.63;100.00
53270;BME280;39159;45.634;9.420;2022-11-02T06:04:32;99657.50;;;8.76;100.00
53270;BME280;39159;45.634;9.420;2022-11-02T06:06:57;99663.47;;;8.78;100.00
53270;BME280;39159;45.634;9.420;2022-11-02T06:09:22;99661.00;;;8.82;100.00
53270;BME280;39159;45.634;9.420;2022-11-02T06:11:48;99667.59;;;8.65;100.00
53270;BME280;39159;45.634;9.420;2022-11-02T06:14:13;99669.78;;;8.63;100.00
53270;BME280;39159;45.634;9.420;2022-11-02T06:16:39;99679.31;;;8.61;100.00
53270;BME280;39159;45.634;9.420;2022-11-02T06:19:04;99676.59;;;8.56;100.00
53270;BME280;39159;45.634;9.420;2022-11-02T06:21:29;99677.97;;;8.53;100.00
53270;BME280;39159;45.634;9.420;2022-11-02T06:23:55;99684.22;;;8.54;100.00
53270;BME280;39159;45.634;9.420;2022-11-02T06:26:20;99692.69;;;8.52;100.00
53270;BME280;39159;45.634;9.420;2022-11-02T06:28:46;99698.13;;;8.52;100.00
53270;BME280;39159;45.634;9.420;2022-11-02T06:31:11;99692.41;;;8.48;100.00
53270;BME280;39159;45.634;9.420;2022-11-02T06:33:37;99685.31;;;8.53;100.00
53270;BME280;39159;45.634;9.420;2022-11-02T06:36:02;99697.31;;;8.52;100.00
53270;BME280;39159;45.634;9.420;2022-11-02T06:38:28;99700.28;;;8.50;100.00
53270;BME280;39159;45.634;9.420;2022-11-02T06:43:19;99697.28;;;8.46;100.00
53270;BME280;39159;45.634;9.420;2022-11-02T06:45:44;99701.09;;;8.50;100.00
53270;BME280;39159;45.634;9.420;2022-11-02T06:48:10;99696.75;;;8.55;100.00
53270;BME280;39159;45.634;9.420;2022-11-02T06:50:36;99699.72;;;8.53;100.00
53270;BME280;39159;45.634;9.420;2022-11-02T06:53:01;99705.44;;;8.57;100.00
53270;BME280;39159;45.634;9.420;2022-11-02T06:55:28;99702.16;;;8.70;100.00
53270;BME280;39159;45.634;9.420;2022-11-02T06:57:54;99699.44;;;8.70;100.00
53270;BME280;39159;45.634;9.420;2022-11-02T07:00:19;99707.56;;;8.75;100.00
53270;BME280;39159;45.634;9.420;2022-11-02T07:02:45;99713.81;;;8.81;100.00
53270;BME280;39159;45.634;9.420;2022-11-02T07:05:11;99709.75;;;8.73;100.00
53270;BME280;39159;45.634;9.420;2022-11-02T07:07:36;99727.13;;;8.82;100.00
53270;BME280;39159;45.634;9.420;2022-11-02T07:10:02;99718.69;;;8.84;100.00
53270;BME280;39159;45.634;9.420;2022-11-02T07:12:32;99723.84;;;8.90;100.00
53270;BME280;39159;45.634;9.420;2022-11-02T07:14:58;99728.72;;;8.93;100.00
53270;BME280;39159;45.634;9.420;2022-11-02T07:17:23;99729.81;;;8.98;100.00
53270;BME280;39159;45.634;9.420;2022-11-02T07:19:48;99741.22;;;9.00;100.00
53270;BME280;39159;45.634;9.420;2022-11-02T07:22:14;99728.19;;;8.97;100.00
53270;BME280;39159;45.634;9.420;2022-11-02T07:24:39;99728.16;;;9.02;100.00
53270;BME280;39159;45.634;9.420;2022-11-02T07:27:05;99728.44;;;9.00;100.00
53270;BME280;39159;45.634;9.420;2022-11-02T07:29:30;99729.78;;;9.08;100.00
53270;BME280;39159;45.634;9.420;2022-11-02T07:31:55;99728.13;;;9.12;100.00
53270;BME280;39159;45.634;9.420;2022-11-02T07:34:21;99730.81;;;9.17;100.00
53270;BME280;39159;45.634;9.420;2022-11-02T07:36:46;99737.38;;;9.66;100.00
53270;BME280;39159;45.634;9.420;2022-11-02T07:39:12;99744.22;;;9.58;100.00
53270;BME280;39159;45.634;9.420;2022-11-02T07:41:37;99752.69;;;9.57;100.00
53270;BME280;39159;45.634;9.420;2022-11-02T07:44:02;99751.34;;;9.54;100.00
53270;BME280;39159;45.634;9.420;2022-11-02T07:46:28;99751.63;;;9.52;100.00
53270;BME280;39159;45.634;9.420;2022-11-02T07:48:53;99749.75;;;9.48;100.00
53270;BME280;39159;45.634;9.420;2022-11-02T07:51:19;99756.84;;;9.44;100.00
53270;BME280;39159;45.634;9.420;2022-11-02T07:53:44;99763.13;;;9.39;100.00
53270;BME280;39159;45.634;9.420;2022-11-02T07:56:10;99759.28;;;9.40;100.00
53270;BME280;39159;45.634;9.420;2022-11-02T07:58:36;99770.50;;;9.33;100.00
53270;BME280;39159;45.634;9.420;2022-11-02T08:01:01;99767.50;;;9.35;100.00
53270;BME280;39159;45.634;9.420;2022-11-02T08:03:27;99765.84;;;9.39;100.00
53270;BME280;39159;45.634;9.420;2022-11-02T08:05:53;99760.41;;;9.39;100.00
53270;BME280;39159;45.634;9.420;2022-11-02T08:08:20;99761.72;;;9.47;100.00
53270;BME280;39159;45.634;9.420;2022-11-02T08:10:49;99754.59;;;9.51;100.00
53270;BME280;39159;45.634;9.420;2022-11-02T08:13:19;99760.06;;;9.51;100.00
53270;BME280;39159;45.634;9.420;2022-11-02T08:15:49;99762.22;;;9.59;100.00
53270;BME280;39159;45.634;9.420;2022-11-02T08:18:19;99759.94;;;9.77;100.00
53270;BME280;39159;45.634;9.420;2022-11-02T08:20:45;99755.94;;;9.98;100.00
53270;BME280;39159;45.634;9.420;2022-11-02T08:23:12;99763.25;;;10.08;100.00
53270;BME280;39159;45.634;9.420;2022-11-02T08:25:38;99757.91;;;10.32;100.00
53270;BME280;39159;45.634;9.420;2022-11-02T08:28:06;99758.22;;;10.54;100.00
53270;BME280;39159;45.634;9.420;2022-11-02T08:30:32;99748.88;;;10.90;100.00
53270;BME280;39159;45.634;9.420;2022-11-02T08:33:10;99752.56;;;10.99;100.00
53270;BME280;39159;45.634;9.420;2022-11-02T08:35:38;99752.84;;;10.97;100.00
53270;BME280;39159;45.634;9.420;2022-11-02T08:38:04;99751.81;;;11.17;100.00
53270;BME280;39159;45.634;9.420;2022-11-02T08:40:30;99747.19;;;11.37;100.00
53270;BME280;39159;45.634;9.420;2022-11-02T08:42:56;99751.34;;;11.10;100.00
53270;BME280;39159;45.634;9.420;2022-11-02T08:45:22;99754.06;;;10.86;100.00
53270;BME280;39159;45.634;9.420;2022-11-02T08:47:48;99747.75;;;11.15;100.00
53270;BME280;39159;45.634;9.420;2022-11-02T08:50:13;99756.84;;;11.29;100.00
53270;BME280;39159;45.634;9.420;2022-11-02T08:52:39;99760.56;;;11.57;100.00
53270;BME280;39159;45.634;9.420;2022-11-02T08:55:04;99749.47;;;11.87;100.00
53270;BME280;39159;45.634;9.420;2022-11-02T08:57:30;99737.47;;;12.20;100.00
53270;BME280;39159;45.634;9.420;2022-11-02T08:59:56;99728.72;;;12.51;100.00
53270;BME280;39159;45.634;9.420;2022-11-02T09:02:21;99727.13;;;12.64;100.00
53270;BME280;39159;45.634;9.420;2022-11-02T09:04:46;99724.72;;;13.04;100.00
53270;BME280;39159;45.634;9.420;2022-11-02T09:07:12;99729.56;;;13.07;100.00
53270;BME280;39159;45.634;9.420;2022-11-02T09:09:37;99741.47;;;13.16;100.00
53270;BME280;39159;45.634;9.420;2022-11-02T09:12:03;99741.25;;;13.13;100.00
53270;BME280;39159;45.634;9.420;2022-11-02T09:14:28;99749.78;;;13.11;100.00
53270;BME280;39159;45.634;9.420;2022-11-02T09:16:54;99735.28;;;13.11;100.00
53270;BME280;39159;45.634;9.420;2022-11-02T09:19:19;99726.25;;;13.10;100.00
53270;BME280;39159;45.634;9.420;2022-11-02T09:21:44;99727.38;;;13.37;100.00
53270;BME280;39159;45.634;9.420;2022-11-02T09:24:12;99725.41;;;13.23;100.00
53270;BME280;39159;45.634;9.420;2022-11-02T09:26:37;99716.78;;;13.44;100.00
53270;BME280;39159;45.634;9.420;2022-11-02T09:29:03;99722.97;;;13.50;100.00
53270;BME280;39159;45.634;9.420;2022-11-02T09:31:28;99718.09;;;13.46;100.00
53270;BME280;39159;45.634;9.420;2022-11-02T09:33:54;99712.00;;;13.36;100.00
53270;BME280;39159;45.634;9.420;2022-11-02T09:36:19;99700.88;;;13.32;100.00
53270;BME280;39159;45.634;9.420;2022-11-02T09:38:45;99700.38;;;13.30;100.00
53270;BME280;39159;45.634;9.420;2022-11-02T09:41:16;99699.47;;;13.57;100.00
53270;BME280;39159;45.634;9.420;2022-11-02T09:46:24;99698.06;;;13.82;100.00
53270;BME280;39159;45.634;9.420;2022-11-02T09:49:05;99694.69;;;14.08;100.00
53270;BME280;39159;45.634;9.420;2022-11-02T09:51:36;99699.66;;;14.91;100.00
53270;BME280;39159;45.634;9.420;2022-11-02T09:56:42;99702.56;;;15.95;100.00
53270;BME280;39159;45.634;9.420;2022-11-02T09:59:21;99693.94;;;16.14;100.00
53270;BME280;39159;45.634;9.420;2022-11-02T10:10:37;99702.44;;;16.56;100.00
53270;BME280;39159;45.634;9.420;2022-11-02T10:13:36;99702.34;;;16.74;100.00
53270;BME280;39159;45.634;9.420;2022-11-02T10:16:18;99698.72;;;17.20;100.00
53270;BME280;39159;45.634;9.420;2022-11-02T10:18:47;99693.84;;;17.68;99.16
53270;BME280;39159;45.634;9.420;2022-11-02T10:21:41;99687.47;;;17.97;95.75
53270;BME280;39159;45.634;9.420;2022-11-02T10:26:40;99691.00;;;18.31;96.47
53270;BME280;39159;45.634;9.420;2022-11-02T10:31:48;99680.19;;;18.84;93.17
53270;BME280;39159;45.634;9.420;2022-11-02T10:34:26;99694.00;;;18.84;91.77
53270;BME280;39159;45.634;9.420;2022-11-02T10:45:52;99693.94;;;17.59;95.18
53270;BME280;39159;45.634;9.420;2022-11-02T10:51:14;99686.78;;;17.16;99.89
53270;BME280;39159;45.634;9.420;2022-11-02T10:53:51;99680.81;;;17.06;100.00
53270;BME280;39159;45.634;9.420;2022-11-02T10:56:28;99681.81;;;17.01;100.00
53270;BME280;39159;45.634;9.420;2022-11-02T11:01:30;99672.69;;;16.71;100.00
53270;BME280;39159;45.634;9.420;2022-11-02T11:06:35;99678.13;;;16.58;100.00
53270;BME280;39159;45.634;9.420;2022-11-02T11:09:22;99669.75;;;16.29;100.00
53270;BME280;39159;45.634;9.420;2022-11-02T11:12:01;99669.81;;;16.11;100.00
53270;BME280;39159;45.634;9.420;2022-11-02T11:14:29;99668.38;;;16.05;100.00
53270;BME280;39159;45.634;9.420;2022-11-02T11:16:59;99662.06;;;15.96;100.00
53270;BME280;39159;45.634;9.420;2022-11-02T11:19:34;99658.69;;;15.90;99.89
53270;BME280;39159;45.634;9.420;2022-11-02T11:22:02;99663.53;;;15.85;100.00
53270;BME280;39159;45.634;9.420;2022-11-02T11:24:32;99655.75;;;15.87;100.00
53270;BME280;39159;45.634;9.420;2022-11-02T11:29:39;99650.25;;;15.87;100.00
53270;BME280;39159;45.634;9.420;2022-11-02T11:32:17;99648.81;;;15.81;100.00
53270;BME280;39159;45.634;9.420;2022-11-02T11:34:49;99651.72;;;15.84;100.00
53270;BME280;39159;45.634;9.420;2022-11-02T11:37:17;99657.06;;;15.63;100.00
53270;BME280;39159;45.634;9.420;2022-11-02T11:39:45;99655.28;;;15.59;100.00
53270;BME280;39159;45.634;9.420;2022-11-02T11:42:20;99660.13;;;15.44;100.00
53270;BME280;39159;45.634;9.420;2022-11-02T11:45:28;99651.38;;;15.33;100.00
53270;BME280;39159;45.634;9.420;2022-11-02T11:48:22;99645.56;;;15.26;100.00
53270;BME280;39159;45.634;9.420;2022-11-02T11:50:50;99647.00;;;15.15;100.00
53270;BME280;39159;45.634;9.420;2022-11-02T11:53:23;99645.19;;;15.02;100.00
53270;BME280;39159;45.634;9.420;2022-11-02T11:55:53;99633.41;;;15.01;100.00
53270;BME280;39159;45.634;9.420;2022-11-02T11:58:20;99628.53;;;14.98;100.00
53270;BME280;39159;45.634;9.420;2022-11-02T12:03:25;99618.03;;;15.18;100.00
53270;BME280;39159;45.634;9.420;2022-11-02T12:06:03;99613.53;;;15.22;100.00
53270;BME280;39159;45.634;9.420;2022-11-02T12:08:43;99606.56;;;15.33;100.00
53270;BME280;39159;45.634;9.420;2022-11-02T12:11:29;99603.00;;;15.59;100.00
53270;BME280;39159;45.634;9.420;2022-11-02T12:17:14;99606.22;;;15.87;100.00
53270;BME280;39159;45.634;9.420;2022-11-02T12:30:41;99598.38;;;16.15;100.00
53270;BME280;39159;45.634;9.420;2022-11-02T12:33:25;99585.09;;;16.17;100.00
53270;BME280;39159;45.634;9.420;2022-11-02T12:36:03;99591.44;;;16.09;100.00
53270;BME280;39159;45.634;9.420;2022-11-02T12:39:07;99588.72;;;15.91;100.00
53270;BME280;39159;45.634;9.420;2022-11-02T12:47:00;99574.50;;;15.81;100.00
53270;BME280;39159;45.634;9.420;2022-11-02T12:54:25;99571.88;;;15.93;100.00
53270;BME280;39159;45.634;9.420;2022-11-02T12:56:53;99565.38;;;15.98;100.00
53270;BME280;39159;45.634;9.420;2022-11-02T12:59:31;99559.69;;;16.03;100.00
53270;BME280;39159;45.634;9.420;2022-11-02T13:02:14;99556.56;;;16.22;100.00
53270;BME280;39159;45.634;9.420;2022-11-02T13:05:05;99551.25;;;16.46;100.00
53270;BME280;39159;45.634;9.420;2022-11-02T13:07:39;99554.97;;;16.71;100.00
53270;BME280;39159;45.634;9.420;2022-11-02T13:10:16;99553.47;;;16.83;100.00
53270;BME280;39159;45.634;9.420;2022-11-02T13:12:44;99552.19;;;16.80;100.00
53270;BME280;39159;45.634;9.420;2022-11-02T13:15:18;99550.16;;;16.68;100.00
53270;BME280;39159;45.634;9.420;2022-11-02T13:17:52;99553.75;;;16.60;100.00
53270;BME280;39159;45.634;9.420;2022-11-02T13:20:22;99547.78;;;16.58;100.00
53270;BME280;39159;45.634;9.420;2022-11-02T13:22:55;99551.19;;;16.55;100.00
53270;BME280;39159;45.634;9.420;2022-11-02T13:25:27;99550.16;;;16.39;100.00
53270;BME280;39159;45.634;9.420;2022-11-02T13:27:59;99548.53;;;16.37;100.00
53270;BME280;39159;45.634;9.420;2022-11-02T13:30:25;99552.28;;;16.33;100.00
53270;BME280;39159;45.634;9.420;2022-11-02T13:33:22;99545.19;;;16.32;100.00
53270;BME280;39159;45.634;9.420;2022-11-02T13:35:50;99542.94;;;16.25;100.00
53270;BME280;39159;45.634;9.420;2022-11-02T13:38:30;99545.38;;;16.18;100.00
53270;BME280;39159;45.634;9.420;2022-11-02T13:49:30;99538.03;;;16.01;100.00
53270;BME280;39159;45.634;9.420;2022-11-02T13:52:33;99548.38;;;16.04;100.00
53270;BME280;39159;45.634;9.420;2022-11-02T13:55:03;99547.75;;;15.99;100.00
53270;BME280;39159;45.634;9.420;2022-11-02T13:57:33;99542.69;;;16.01;100.00
53270;BME280;39159;45.634;9.420;2022-11-02T14:00:03;99537.19;;;16.01;100.00
53270;BME280;39159;45.634;9.420;2022-11-02T14:02:32;99542.25;;;15.99;100.00
53270;BME280;39159;45.634;9.420;2022-11-02T14:05:00;99541.75;;;15.97;100.00
53270;BME280;39159;45.634;9.420;2022-11-02T14:07:33;99548.88;;;15.98;100.00
53270;BME280;39159;45.634;9.420;2022-11-02T14:10:15;99545.78;;;16.08;100.00
53270;BME280;39159;45.634;9.420;2022-11-02T14:12:45;99536.84;;;16.11;100.00
53270;BME280;39159;45.634;9.420;2022-11-02T14:20:49;99537.88;;;15.98;100.00
53270;BME280;39159;45.634;9.420;2022-11-02T14:25:52;99537.59;;;15.82;100.00
53270;BME280;39159;45.634;9.420;2022-11-02T14:36:28;99532.13;;;15.55;100.00
53270;BME280;39159;45.634;9.420;2022-11-02T14:39:21;99531.81;;;15.57;100.00
53270;BME280;39159;45.634;9.420;2022-11-02T14:47:14;99539.59;;;15.46;100.00
53270;BME280;39159;45.634;9.420;2022-11-02T14:49:49;99536.03;;;15.37;100.00
53270;BME280;39159;45.634;9.420;2022-11-02T14:52:32;99535.88;;;15.33;100.00
53270;BME280;39159;45.634;9.420;2022-11-02T14:59:56;99539.59;;;15.29;100.00
53270;BME280;39159;45.634;9.420;2022-11-02T15:02:27;99539.28;;;15.30;100.00
53270;BME280;39159;45.634;9.420;2022-11-02T15:04:56;99535.25;;;15.28;100.00
53270;BME280;39159;45.634;9.420;2022-11-02T15:07:31;99535.25;;;15.19;100.00
53270;BME280;39159;45.634;9.420;2022-11-02T15:10:01;99536.22;;;15.15;100.00
53270;BME280;39159;45.634;9.420;2022-11-02T15:12:38;99536.38;;;15.09;100.00
53270;BME280;39159;45.634;9.420;2022-11-02T15:17:51;99535.41;;;15.05;100.00